createdAt,value
2019-04-06T00:01:06.842Z,12.35
2019-04-06T00:03:37.001Z,15.65
2019-04-06T00:06:05.998Z,14.47
2019-04-06T00:08:34.629Z,12.88
2019-04-06T00:11:03.296Z,14.05
2019-04-06T00:13:31.948Z,13.45
2019-04-06T00:16:00.753Z,12.65
2019-04-06T00:18:29.495Z,12.05
2019-04-06T00:20:58.215Z,12.33
2019-04-06T00:23:26.846Z,12.37
2019-04-06T00:25:55.418Z,13.15
2019-04-06T00:28:24.091Z,15.30
2019-04-06T00:30:54.403Z,11.95
2019-04-06T00:33:24.645Z,13.55
2019-04-06T00:35:53.292Z,14.07
2019-04-06T00:38:26.994Z,12.95
2019-04-06T00:40:55.639Z,11.55
2019-04-06T00:43:24.218Z,12.25
2019-04-06T00:45:52.835Z,14.87
2019-04-06T00:48:22.077Z,15.23
2019-04-06T00:50:50.731Z,18.30
2019-04-06T00:53:19.420Z,24.25
2019-04-06T00:55:55.470Z,13.85
2019-04-06T00:58:18.438Z,13.28
2019-04-06T01:00:47.093Z,12.20
2019-04-06T01:03:15.747Z,12.58
2019-04-06T01:05:44.773Z,12.90
2019-04-06T01:08:13.344Z,12.78
2019-04-06T01:10:41.943Z,13.83
2019-04-06T01:13:11.516Z,13.65
2019-04-06T01:15:40.172Z,12.53
2019-04-06T01:18:08.818Z,11.95
2019-04-06T01:20:37.441Z,12.03
2019-04-06T01:23:06.084Z,11.63
2019-04-06T01:25:35.542Z,12.82
2019-04-06T01:28:04.471Z,13.53
2019-04-06T01:30:33.101Z,12.80
2019-04-06T01:33:01.756Z,16.62
2019-04-06T01:35:30.445Z,15.05
2019-04-06T01:37:59.084Z,12.68
2019-04-06T01:40:29.177Z,12.90
2019-04-06T01:42:57.907Z,13.90
2019-04-06T01:45:26.447Z,13.30
2019-04-06T01:47:55.082Z,14.33
2019-04-06T01:50:24.194Z,13.95
2019-04-06T01:52:52.777Z,12.95
2019-04-06T01:55:22.217Z,13.78
2019-04-06T01:57:51.233Z,12.35
2019-04-06T02:00:19.888Z,13.93
2019-04-06T02:02:50.115Z,11.85
2019-04-06T02:05:18.822Z,11.95
2019-04-06T02:07:47.743Z,12.35
2019-04-06T02:10:16.387Z,12.20
2019-04-06T02:12:45.078Z,13.15
2019-04-06T02:15:13.826Z,14.45
2019-04-06T02:17:42.476Z,13.40
2019-04-06T02:20:11.685Z,12.68
2019-04-06T02:22:40.312Z,13.65
2019-04-06T02:25:09.260Z,14.13
2019-04-06T02:27:37.946Z,13.45
2019-04-06T02:30:27.300Z,13.32
2019-04-06T02:33:03.951Z,13.35
2019-04-06T02:35:50.315Z,13.80
2019-04-06T02:38:20.547Z,14.20
2019-04-06T02:41:06.808Z,13.72
2019-04-06T02:43:39.990Z,12.68
2019-04-06T02:46:08.638Z,12.80
2019-04-06T02:48:37.268Z,12.73
2019-04-06T02:51:05.911Z,13.95
2019-04-06T02:53:34.567Z,15.65
2019-04-06T02:56:03.230Z,13.22
2019-04-06T02:58:31.872Z,15.10
2019-04-06T03:01:00.923Z,16.50
2019-04-06T03:03:29.905Z,15.08
2019-04-06T03:05:58.567Z,15.23
2019-04-06T03:08:27.314Z,15.32
2019-04-06T03:10:55.963Z,15.53
2019-04-06T03:13:26.389Z,13.90
2019-04-06T03:15:55.076Z,15.72
2019-04-06T03:18:23.723Z,16.35
2019-04-06T03:20:52.365Z,16.55
2019-04-06T03:23:24.552Z,16.40
2019-04-06T03:25:53.281Z,13.93
2019-04-06T03:28:21.933Z,14.33
2019-04-06T03:30:51.150Z,15.23
2019-04-06T03:33:20.076Z,13.88
2019-04-06T03:35:50.582Z,14.60
2019-04-06T03:38:19.586Z,14.68
2019-04-06T03:40:48.192Z,14.78
2019-04-06T03:43:16.834Z,13.22
2019-04-06T03:45:46.942Z,14.68
2019-04-06T03:48:15.548Z,14.90
2019-04-06T03:50:44.281Z,14.20
2019-04-06T03:53:14.295Z,15.13
2019-04-06T03:55:42.937Z,14.90
2019-04-06T03:58:11.594Z,14.80
2019-04-06T04:00:40.244Z,13.98
2019-04-06T04:03:08.869Z,15.23
2019-04-06T04:05:38.731Z,14.63
2019-04-06T04:08:07.423Z,14.10
2019-04-06T04:10:37.929Z,14.38
2019-04-06T04:13:06.673Z,15.43
2019-04-06T04:15:35.375Z,13.70
2019-04-06T04:18:09.064Z,15.10
2019-04-06T04:20:37.706Z,15.15
2019-04-06T04:23:06.405Z,14.83
2019-04-06T04:25:37.117Z,15.15
2019-04-06T04:28:05.833Z,15.32
2019-04-06T04:30:34.987Z,14.50
2019-04-06T04:33:03.673Z,15.30
2019-04-06T04:35:32.427Z,16.00
2019-04-06T04:38:01.821Z,16.67
2019-04-06T04:40:30.476Z,15.53
2019-04-06T04:42:59.105Z,16.35
2019-04-06T04:45:27.870Z,14.98
2019-04-06T04:47:56.659Z,15.13
2019-04-06T04:50:25.284Z,14.45
2019-04-06T04:52:53.972Z,14.10
2019-04-06T04:55:22.642Z,14.65
2019-04-06T04:57:51.671Z,15.65
2019-04-06T05:00:20.355Z,15.13
2019-04-06T05:02:48.983Z,15.83
2019-04-06T05:05:17.572Z,17.30
2019-04-06T05:07:46.273Z,19.20
2019-04-06T05:10:14.941Z,21.35
2019-04-06T05:12:43.621Z,21.85
2019-04-06T05:15:23.920Z,22.93
2019-04-06T05:17:52.698Z,20.48
2019-04-06T05:20:22.075Z,21.80
2019-04-06T05:22:51.565Z,20.27
2019-04-06T05:25:20.202Z,21.68
2019-04-06T05:27:52.225Z,21.73
2019-04-06T05:30:19.347Z,20.77
2019-04-06T05:32:47.946Z,20.10
2019-04-06T05:35:16.603Z,19.27
2019-04-06T05:37:45.279Z,19.00
2019-04-06T05:40:13.934Z,19.02
2019-04-06T05:42:42.605Z,22.13
2019-04-06T05:45:11.403Z,21.05
2019-04-06T05:47:39.983Z,23.87
2019-04-06T05:50:09.023Z,25.32
2019-04-06T05:52:38.078Z,21.73
2019-04-06T05:55:07.288Z,24.05
2019-04-06T05:57:37.241Z,22.82
2019-04-06T06:00:10.504Z,23.32
2019-04-06T06:02:42.009Z,22.20
2019-04-06T06:05:11.176Z,22.60
2019-04-06T06:07:40.168Z,23.52
2019-04-06T06:10:09.047Z,22.27
2019-04-06T06:12:37.689Z,22.10
2019-04-06T06:15:07.942Z,23.02
2019-04-06T06:17:37.974Z,23.35
2019-04-06T06:20:08.186Z,23.40
2019-04-06T06:22:36.839Z,24.65
2019-04-06T06:25:08.581Z,24.15
2019-04-06T06:27:37.275Z,22.45
2019-04-06T06:30:08.984Z,22.60
2019-04-06T06:32:37.658Z,22.50
2019-04-06T06:35:07.555Z,23.42
2019-04-06T06:37:36.570Z,23.35
2019-04-06T06:40:06.832Z,23.73
2019-04-06T06:42:35.484Z,21.90
2019-04-06T06:45:05.200Z,23.77
2019-04-06T06:47:33.849Z,23.65
2019-04-06T06:50:02.799Z,23.22
2019-04-06T06:52:31.423Z,23.60
2019-04-06T06:55:01.069Z,24.65
2019-04-06T06:57:31.181Z,23.30
2019-04-06T06:59:59.780Z,22.50
2019-04-06T07:02:28.596Z,21.57
2019-04-06T07:04:57.248Z,21.55
2019-04-06T07:07:25.868Z,24.70
2019-04-06T07:10:04.427Z,24.05
2019-04-06T07:12:25.335Z,22.45
2019-04-06T07:14:54.584Z,20.85
2019-04-06T07:17:23.345Z,21.82
2019-04-06T07:19:51.888Z,20.92
2019-04-06T07:22:22.298Z,21.60
2019-04-06T07:24:51.139Z,22.48
2019-04-06T07:27:19.968Z,24.00
2019-04-06T07:29:50.172Z,24.40
2019-04-06T07:32:18.898Z,23.75
2019-04-06T07:34:47.559Z,23.90
2019-04-06T07:37:16.156Z,22.67
2019-04-06T07:39:45.137Z,24.60
2019-04-06T07:42:13.788Z,23.38
2019-04-06T07:44:44.021Z,22.67
2019-04-06T07:47:13.242Z,18.12
2019-04-06T07:49:42.091Z,17.80
2019-04-06T07:52:10.751Z,19.85
2019-04-06T07:54:39.388Z,20.32
2019-04-06T07:57:08.105Z,20.52
2019-04-06T07:59:36.761Z,20.45
2019-04-06T08:02:05.416Z,22.37
2019-04-06T08:04:34.121Z,22.32
2019-04-06T08:07:02.775Z,21.77
2019-04-06T08:09:31.813Z,18.70
2019-04-06T08:12:00.642Z,20.05
2019-04-06T08:14:29.368Z,19.50
2019-04-06T08:16:58.021Z,18.67
2019-04-06T08:19:26.683Z,19.70
2019-04-06T08:21:55.450Z,19.27
2019-04-06T08:24:24.194Z,19.52
2019-04-06T08:26:52.778Z,18.05
2019-04-06T08:29:21.433Z,18.48
2019-04-06T08:31:50.531Z,19.10
2019-04-06T08:34:19.183Z,17.95
2019-04-06T08:36:48.181Z,17.05
2019-04-06T08:39:20.083Z,17.87
2019-04-06T08:41:49.073Z,17.80
2019-04-06T08:44:17.827Z,18.85
2019-04-06T08:46:46.658Z,16.95
2019-04-06T08:49:15.369Z,16.90
2019-04-06T08:51:44.351Z,16.20
2019-04-06T08:54:13.344Z,18.27
2019-04-06T08:56:42.086Z,17.95
2019-04-06T08:59:13.146Z,16.17
2019-04-06T09:01:41.200Z,14.90
2019-04-06T09:04:09.928Z,15.78
2019-04-06T09:06:38.554Z,15.58
2019-04-06T09:09:08.063Z,14.58
2019-04-06T09:11:36.824Z,14.28
2019-04-06T09:14:05.476Z,15.10
2019-04-06T09:16:34.248Z,15.38
2019-04-06T09:19:03.043Z,14.50
2019-04-06T09:21:31.713Z,14.53
2019-04-06T09:24:00.474Z,14.87
2019-04-06T09:26:29.349Z,13.28
2019-04-06T09:28:59.548Z,13.00
2019-04-06T09:31:28.587Z,13.38
2019-04-06T09:33:57.173Z,12.20
2019-04-06T09:36:25.841Z,12.50
2019-04-06T09:38:54.614Z,13.55
2019-04-06T09:41:25.891Z,12.58
2019-04-06T09:43:53.675Z,12.30
2019-04-06T09:46:32.999Z,12.03
2019-04-06T09:49:16.936Z,11.43
2019-04-06T09:51:59.512Z,11.28
2019-04-06T09:54:35.644Z,10.40
2019-04-06T09:57:21.843Z,8.85
2019-04-06T09:59:55.315Z,8.43
2019-04-06T10:02:31.845Z,7.80
2019-04-06T10:05:08.475Z,8.90
2019-04-06T10:07:40.313Z,8.18
2019-04-06T10:10:17.193Z,8.85
2019-04-06T10:12:59.442Z,8.10
2019-04-06T10:15:36.561Z,8.40
2019-04-06T10:18:07.113Z,7.80
2019-04-06T10:20:49.514Z,8.60
2019-04-06T10:23:38.129Z,8.13
2019-04-06T10:26:27.285Z,7.92
2019-04-06T10:29:15.977Z,8.33
2019-04-06T10:31:55.050Z,9.00
2019-04-06T10:34:28.157Z,8.75
2019-04-06T10:36:58.753Z,8.23
2019-04-06T10:39:31.875Z,8.58
2019-04-06T10:42:02.141Z,7.92
2019-04-06T10:44:35.360Z,8.50
2019-04-06T10:47:12.981Z,7.40
2019-04-06T10:49:43.265Z,8.50
2019-04-06T10:52:31.267Z,9.15
2019-04-06T10:55:10.514Z,8.48
2019-04-06T10:57:42.347Z,9.10
2019-04-06T11:00:12.731Z,9.25
2019-04-06T11:02:58.375Z,9.35
2019-04-06T11:05:28.672Z,8.55
2019-04-06T11:08:02.016Z,9.13
2019-04-06T11:10:48.420Z,8.95
2019-04-06T11:13:37.148Z,8.25
2019-04-06T11:16:07.459Z,9.25
2019-04-06T11:18:54.320Z,9.33
2019-04-06T11:21:36.814Z,9.48
2019-04-06T11:24:09.822Z,8.90
2019-04-06T11:26:56.849Z,9.43
2019-04-06T11:29:42.382Z,9.20
2019-04-06T11:32:35.749Z,11.65
2019-04-06T11:35:03.731Z,10.05
2019-04-06T11:37:34.196Z,9.18
2019-04-06T11:40:07.220Z,9.40
2019-04-06T11:42:43.280Z,8.93
2019-04-06T11:45:31.347Z,9.40
2019-04-06T11:48:04.731Z,9.15
2019-04-06T11:50:39.412Z,7.60
2019-04-06T11:53:10.064Z,8.45
2019-04-06T11:55:49.391Z,8.40
2019-04-06T11:58:23.096Z,7.45
2019-04-06T12:00:53.496Z,7.50
2019-04-06T12:03:26.726Z,7.65
2019-04-06T12:05:59.945Z,9.90
2019-04-06T12:08:32.534Z,8.00
2019-04-06T12:11:05.562Z,6.67
2019-04-06T12:13:38.382Z,7.62
2019-04-06T12:16:08.671Z,8.10
2019-04-06T12:18:41.832Z,7.25
2019-04-06T12:21:15.109Z,6.65
2019-04-06T12:23:57.348Z,8.30
2019-04-06T12:26:33.666Z,7.35
2019-04-06T12:29:09.870Z,7.05
2019-04-06T12:31:42.667Z,7.60
2019-04-06T12:34:29.313Z,7.80
2019-04-06T12:36:59.601Z,6.80
2019-04-06T12:39:29.907Z,6.95
2019-04-06T12:42:00.166Z,6.72
2019-04-06T12:44:45.527Z,7.08
2019-04-06T12:47:19.214Z,7.08
2019-04-06T12:49:52.599Z,7.08
2019-04-06T12:52:29.208Z,7.55
2019-04-06T12:55:00.121Z,7.25
2019-04-06T12:57:46.552Z,7.20
2019-04-06T13:00:19.546Z,7.28
2019-04-06T13:02:55.910Z,7.85
2019-04-06T13:05:36.425Z,9.03
2019-04-06T13:08:06.744Z,7.83
2019-04-06T13:10:53.681Z,7.78
2019-04-06T13:13:29.932Z,8.48
2019-04-06T13:16:06.414Z,7.75
2019-04-06T13:18:55.719Z,8.10
2019-04-06T13:21:32.061Z,8.13
2019-04-06T13:24:20.470Z,7.67
2019-04-06T13:26:50.731Z,7.83
2019-04-06T13:29:23.694Z,7.55
2019-04-06T13:32:06.226Z,7.75
2019-04-06T13:34:52.878Z,7.80
2019-04-06T13:37:41.256Z,7.70
2019-04-06T13:40:23.620Z,7.65
2019-04-06T13:43:12.133Z,6.95
2019-04-06T13:45:45.011Z,7.87
2019-04-06T13:48:28.531Z,8.45
2019-04-06T13:51:01.813Z,7.28
2019-04-06T13:53:50.152Z,7.42
2019-04-06T13:56:26.428Z,7.00
2019-04-06T13:59:07.518Z,7.30
2019-04-06T14:01:37.827Z,7.17
2019-04-06T14:04:23.436Z,8.05
2019-04-06T14:07:11.629Z,7.62
2019-04-06T14:09:42.259Z,7.40
2019-04-06T14:12:29.392Z,7.30
2019-04-06T14:15:23.849Z,7.35
2019-04-06T14:18:06.030Z,7.37
2019-04-06T14:20:54.393Z,7.78
2019-04-06T14:23:33.936Z,6.95
2019-04-06T14:26:20.725Z,7.28
2019-04-06T14:29:10.241Z,7.17
2019-04-06T14:31:52.361Z,8.08
2019-04-06T14:34:28.501Z,6.97
2019-04-06T14:37:15.279Z,7.25
2019-04-06T14:40:01.749Z,7.00
2019-04-06T14:42:33.043Z,8.08
2019-04-06T14:45:03.421Z,7.95
2019-04-06T14:47:36.824Z,8.13
2019-04-06T14:50:14.299Z,7.72
2019-04-06T14:53:02.523Z,8.35
2019-04-06T14:55:35.847Z,7.53
2019-04-06T14:58:09.178Z,8.98
2019-04-06T15:00:57.900Z,8.15
2019-04-06T15:03:28.190Z,8.00
2019-04-06T15:06:01.063Z,8.63
2019-04-06T15:08:46.707Z,7.92
2019-04-06T15:11:21.729Z,8.68
2019-04-06T15:13:55.259Z,8.43
2019-04-06T15:16:28.329Z,7.28
2019-04-06T15:19:14.045Z,8.00
2019-04-06T15:21:51.355Z,8.58
2019-04-06T15:24:24.730Z,8.50
2019-04-06T15:27:02.313Z,9.78
2019-04-06T15:29:47.565Z,8.33
2019-04-06T15:32:20.958Z,9.73
2019-04-06T15:34:54.020Z,10.98
2019-04-06T15:37:24.318Z,8.80
2019-04-06T15:40:11.444Z,9.35
2019-04-06T15:42:41.679Z,10.10
2019-04-06T15:45:27.350Z,8.90
2019-04-06T15:47:58.134Z,9.68
2019-04-06T15:50:44.914Z,10.35
2019-04-06T15:53:15.144Z,9.55
2019-04-06T15:55:51.290Z,11.57
2019-04-06T15:58:27.045Z,10.60
2019-04-06T16:01:13.897Z,9.00
2019-04-06T16:04:01.229Z,9.68
2019-04-06T16:06:31.613Z,9.40
2019-04-06T16:09:14.226Z,10.50
2019-04-06T16:12:02.484Z,8.98
2019-04-06T16:14:54.077Z,11.15
2019-04-06T16:17:43.368Z,11.70
2019-04-06T16:20:32.467Z,10.03
2019-04-06T16:23:19.047Z,9.60
2019-04-06T16:25:49.242Z,10.20
2019-04-06T16:28:22.338Z,11.90
2019-04-06T16:31:01.967Z,12.33
2019-04-06T16:33:32.204Z,13.83
2019-04-06T16:36:02.491Z,12.07
2019-04-06T16:38:45.045Z,11.05
2019-04-06T16:41:31.350Z,12.70
2019-04-06T16:44:03.406Z,11.12
2019-04-06T16:46:48.662Z,10.53
2019-04-06T16:49:35.817Z,10.98
2019-04-06T16:52:21.671Z,12.07
2019-04-06T16:55:01.004Z,9.85
2019-04-06T16:57:34.240Z,12.75
2019-04-06T17:00:17.043Z,11.28
2019-04-06T17:02:55.125Z,11.03
2019-04-06T17:05:41.819Z,11.35
2019-04-06T17:08:19.008Z,11.30
2019-04-06T17:11:08.242Z,9.78
2019-04-06T17:13:44.445Z,11.30
2019-04-06T17:16:28.408Z,12.37
2019-04-06T17:18:58.922Z,11.93
2019-04-06T17:21:29.231Z,13.68
2019-04-06T17:24:02.291Z,13.35
2019-04-06T17:26:35.450Z,13.65
2019-04-06T17:29:08.648Z,11.68
2019-04-06T17:31:38.996Z,11.45
2019-04-06T17:34:12.050Z,12.43
2019-04-06T17:36:45.345Z,11.73
2019-04-06T17:39:16.084Z,12.30
2019-04-06T17:41:46.528Z,12.33
2019-04-06T17:44:17.268Z,11.57
2019-04-06T17:47:02.652Z,13.25
2019-04-06T17:49:50.679Z,14.40
2019-04-06T17:52:38.014Z,12.35
2019-04-06T17:55:25.298Z,11.10
2019-04-06T17:58:14.176Z,10.45
2019-04-06T18:00:47.485Z,10.78
2019-04-06T18:03:34.303Z,10.65
2019-04-06T18:06:07.300Z,10.40
2019-04-06T18:08:54.008Z,10.68
2019-04-06T18:11:46.090Z,11.43
2019-04-06T18:14:10.136Z,9.93
2019-04-06T18:16:38.977Z,9.58
2019-04-06T18:19:08.995Z,11.30
2019-04-06T18:21:39.087Z,10.98
2019-04-06T18:24:07.940Z,10.05
2019-04-06T18:26:39.623Z,11.03
2019-04-06T18:29:08.319Z,12.00
2019-04-06T18:31:41.333Z,10.40
2019-04-06T18:34:11.505Z,9.90
2019-04-06T18:36:50.890Z,11.33
2019-04-06T18:39:24.291Z,10.85
2019-04-06T18:41:53.578Z,10.25
2019-04-06T18:44:22.257Z,10.05
2019-04-06T18:46:50.901Z,11.12
2019-04-06T18:49:19.541Z,9.63
2019-04-06T18:51:48.379Z,10.25
2019-04-06T18:54:17.024Z,9.85
2019-04-06T18:56:46.815Z,9.43
2019-04-06T18:59:15.366Z,9.75
2019-04-06T19:01:43.928Z,9.58
2019-04-06T19:04:12.587Z,9.95
2019-04-06T19:06:41.250Z,10.50
2019-04-06T19:09:20.653Z,10.43
2019-04-06T19:11:40.903Z,10.30
2019-04-06T19:14:11.127Z,10.78
2019-04-06T19:16:39.883Z,10.08
2019-04-06T19:19:13.840Z,10.60
2019-04-06T19:21:42.604Z,10.88
2019-04-06T19:24:11.312Z,10.40
2019-04-06T19:26:40.417Z,10.60
2019-04-06T19:29:09.278Z,10.80
2019-04-06T19:31:38.086Z,10.68
2019-04-06T19:34:06.972Z,10.43
2019-04-06T19:36:35.616Z,10.43
2019-04-06T19:39:07.507Z,10.00
2019-04-06T19:41:36.165Z,10.25
2019-04-06T19:44:05.002Z,10.58
2019-04-06T19:46:34.015Z,10.20
2019-04-06T19:49:02.928Z,9.70
2019-04-06T19:51:32.020Z,11.75
2019-04-06T19:54:00.858Z,10.58
2019-04-06T19:56:30.000Z,10.48
2019-04-06T19:58:58.980Z,10.90
2019-04-06T20:01:27.718Z,15.10
2019-04-06T20:03:56.371Z,15.43
2019-04-06T20:06:25.065Z,13.00
2019-04-06T20:08:53.926Z,12.05
2019-04-06T20:11:22.480Z,12.35
2019-04-06T20:13:53.948Z,11.78
2019-04-06T20:16:22.892Z,11.55
2019-04-06T20:18:52.146Z,11.43
2019-04-06T20:21:20.789Z,12.40
2019-04-06T20:23:49.587Z,12.40
2019-04-06T20:26:19.774Z,11.60
2019-04-06T20:28:48.357Z,12.70
2019-04-06T20:31:17.018Z,12.53
2019-04-06T20:33:51.428Z,11.95
2019-04-06T20:36:17.657Z,12.73
2019-04-06T20:38:46.333Z,11.88
2019-04-06T20:41:16.471Z,12.85
2019-04-06T20:43:45.119Z,12.63
2019-04-06T20:46:13.767Z,12.60
2019-04-06T20:48:43.564Z,12.65
2019-04-06T20:51:14.697Z,12.63
2019-04-06T20:53:49.760Z,12.65
2019-04-06T20:56:21.738Z,12.35
2019-04-06T20:58:51.165Z,13.98
2019-04-06T21:01:20.035Z,12.45
2019-04-06T21:03:58.799Z,13.18
2019-04-06T21:06:19.189Z,13.00
2019-04-06T21:08:48.101Z,12.58
2019-04-06T21:11:16.728Z,13.05
2019-04-06T21:13:45.982Z,14.75
2019-04-06T21:16:15.269Z,14.45
2019-04-06T21:18:44.497Z,14.60
2019-04-06T21:21:13.159Z,15.13
2019-04-06T21:23:41.932Z,14.78
2019-04-06T21:26:11.568Z,14.45
2019-04-06T21:28:40.252Z,18.80
2019-04-06T21:31:08.908Z,17.55
2019-04-06T21:33:39.848Z,16.42
2019-04-06T21:36:08.674Z,14.50
2019-04-06T21:38:39.141Z,15.48
2019-04-06T21:41:08.006Z,14.65
2019-04-06T21:43:38.007Z,14.40
2019-04-06T21:46:06.892Z,14.90
2019-04-06T21:48:35.693Z,14.05
2019-04-06T21:51:04.427Z,13.28
2019-04-06T21:53:33.096Z,14.00
2019-04-06T21:56:07.096Z,14.63
2019-04-06T21:58:32.450Z,13.43
2019-04-06T22:01:02.625Z,13.65
2019-04-06T22:03:33.779Z,13.72
2019-04-06T22:06:02.713Z,13.70
2019-04-06T22:08:31.773Z,14.25
2019-04-06T22:11:01.943Z,15.05
2019-04-06T22:13:30.664Z,15.00
2019-04-06T22:15:59.380Z,14.90
2019-04-06T22:18:28.235Z,15.98
2019-04-06T22:20:57.029Z,15.70
2019-04-06T22:23:25.682Z,18.32
2019-04-06T22:25:55.152Z,17.80
2019-04-06T22:28:25.450Z,15.23
2019-04-06T22:30:55.584Z,14.68
2019-04-06T22:33:25.917Z,14.85
2019-04-06T22:35:55.062Z,15.05
2019-04-06T22:38:27.227Z,15.15
2019-04-06T22:40:55.828Z,14.70
2019-04-06T22:43:24.952Z,15.00
2019-04-06T22:45:53.719Z,16.30
2019-04-06T22:48:23.095Z,16.17
2019-04-06T22:50:52.512Z,15.85
2019-04-06T22:53:21.417Z,15.75
2019-04-06T22:55:50.621Z,16.37
2019-04-06T22:58:19.699Z,16.15
2019-04-06T23:00:53.433Z,16.90
2019-04-06T23:03:41.240Z,15.70
2019-04-06T23:06:17.986Z,16.32
2019-04-06T23:08:48.610Z,14.55
2019-04-06T23:11:17.247Z,16.23
2019-04-06T23:13:46.075Z,15.35
2019-04-06T23:16:14.828Z,16.37
2019-04-06T23:18:44.482Z,15.72
2019-04-06T23:21:13.507Z,19.02
2019-04-06T23:23:42.527Z,17.37
2019-04-06T23:26:11.314Z,14.55
2019-04-06T23:28:39.976Z,15.18
2019-04-06T23:31:08.731Z,14.98
2019-04-06T23:33:38.975Z,14.15
2019-04-06T23:36:08.902Z,14.30
2019-04-06T23:38:37.954Z,14.35
2019-04-06T23:41:08.113Z,15.20
2019-04-06T23:43:37.007Z,14.73
2019-04-06T23:46:06.393Z,14.07
2019-04-06T23:48:36.364Z,15.00
2019-04-06T23:51:05.242Z,12.68
2019-04-06T23:53:34.433Z,14.43
2019-04-06T23:56:03.385Z,14.13
2019-04-06T23:58:32.469Z,13.98
